Etusivu
METAR-TAF:

METAR-TAF

Lentoasemat :

Saint Vincent, Saint Vincent ja Grenadiinit

Leveyspiiri: 13-09-23N, Pituuspiiri: 061-09-01W, korkeus merenpinnasta: 41 m

Tämänhetkinen sää

Tämä raportti tehtiin 47 minuuttia sitten, kello 10.00 UTC
Tuuli 4 kn idästä/koillisesta
Lämpötila 28°C
Kosteus 79%
Ilmanpaine 1013 hPa
Näkyvyys 10 km tai enemmän
Hajanaisia pilviä 1800 ft:n korkeudessa
Hajonneita pilviä 3400 ft:n korkeudessa
sadekuuroja näköpiirissä,

METAR: TVSA 211000Z 06004KT 9999 VCSH SCT018 BKN034 28/24 Q1013

Aika: 06:47 (10:47 UTC)

Sääennuste

Tämä raportti tehtiin 5 tuntia ja 47 minuuttia sitten, kello 05.00 UTC
Ennuste voimassa 21. päivästä klo 06 UTC - 22. päivään klo 06 UTC
Tuuli 10 kn koillisesta
Näkyvyys 10 km tai enemmän
Hajanaisia pilviä 1800 ft:n korkeudessa

TAF: TVSA 210500Z 2106/2206 04010KT 9999 SCT018

Säähavainnot ja -ennusteet yli 4000 lentoasemalta (METAR- ja TAF-raportit).

Käytössä olevat sääasemat on merkitty karttaan keltaisilla ja punaisilla pisteillä.

Aseta hiiri pisteen päälle nähdäksesi sääaseman nimen.

Klikkaa sitten nähdäksesi säähavainnot ja -ennusteet.

Kartan vaihtaminen: klikkaa mustalla rastilla varustettuja vihreitä pisteitä, niin voit zoomata sisään; viivalla varustettua vihreää pistettä, niin voit zoomata ulos tai vihreitä nuolia, niin pääset viereisille kartoille.


METAR-TAF: